Edler, Colorado
Current Conditions -  °F | °C
As of 11:53 PM on Thursday 27 Nov 2014 (Local Time) from KLAA Reporting Station
Clear Clear  
Wind Chill: 20°   Ceiling: Unl
Heat Index: 28°   Visibility: 10mi
Dew Point: 21°   Wind: 8mph
Humidity: 75%   Direction: 270°W
Pressure: 30.05"   Gusts: NA
Location:  37.4412°N, 102.623°W
Report Text: KLAA 280653Z AUTO 27007KT 10SM CLR M02/M06 A3005 RMK AO2 SLP175 T10221061 401781089
Loading
Personal Weather Stations






























Interactive Weather Map New forecast layout! Learn more

10-Day Weather Forecast

Advertisements
Track Severe Weather on mobile